Terminal Aerodrome Forecast
Issued by NWS Sterling, VA

Home | Current Version | Previous Version | Text Only | Print | Product List | Glossary On
Versions: 1 2 3 4 5 6 7 8 9 10 11 12 13 14 15 16 17
000
FTUS41 KLWX 261725
TAFMRB
TAF
KMRB 261725Z 2618/2718 19006KT P6SM VCTS BKN070CB
     FM270000 20004KT P6SM SCT060
     FM270300 VRB03KT P6SM BKN060
     FM270600 VRB03KT 5SM BR BKN060
     FM271200 00000KT P6SM SCT120=

USA.gov is the U.S. government's official web portal to all federal, state and local government web resources and services.